sensor_id;sensor_type;location;lat;lon;timestamp;P1;durP1;ratioP1;P2;durP2;ratioP2
58017;SDS011;43810;50.860;19.226;2023-05-13T00:00:52;12.70;;;5.72;;
58017;SDS011;43810;50.860;19.226;2023-05-13T00:03:18;11.65;;;5.63;;
58017;SDS011;43810;50.860;19.226;2023-05-13T00:05:43;9.25;;;5.85;;
58017;SDS011;43810;50.860;19.226;2023-05-13T00:08:10;8.02;;;5.68;;
58017;SDS011;43810;50.860;19.226;2023-05-13T00:10:36;10.05;;;5.78;;
58017;SDS011;43810;50.860;19.226;2023-05-13T00:13:02;7.97;;;5.25;;
58017;SDS011;43810;50.860;19.226;2023-05-13T00:15:28;6.75;;;5.55;;
58017;SDS011;43810;50.860;19.226;2023-05-13T00:17:54;8.43;;;5.70;;
58017;SDS011;43810;50.860;19.226;2023-05-13T00:20:19;11.25;;;5.88;;
58017;SDS011;43810;50.860;19.226;2023-05-13T00:22:45;11.05;;;6.13;;
58017;SDS011;43810;50.860;19.226;2023-05-13T00:25:11;8.90;;;5.80;;
58017;SDS011;43810;50.860;19.226;2023-05-13T00:27:37;11.27;;;5.88;;
58017;SDS011;43810;50.860;19.226;2023-05-13T00:30:03;10.35;;;6.30;;
58017;SDS011;43810;50.860;19.226;2023-05-13T00:32:30;15.52;;;5.63;;
58017;SDS011;43810;50.860;19.226;2023-05-13T00:34:56;8.30;;;5.85;;
58017;SDS011;43810;50.860;19.226;2023-05-13T00:37:22;8.45;;;5.50;;
58017;SDS011;43810;50.860;19.226;2023-05-13T00:39:47;10.32;;;6.95;;
58017;SDS011;43810;50.860;19.226;2023-05-13T00:42:14;9.25;;;5.85;;
58017;SDS011;43810;50.860;19.226;2023-05-13T00:44:40;10.95;;;5.97;;
58017;SDS011;43810;50.860;19.226;2023-05-13T00:47:05;12.00;;;6.22;;
58017;SDS011;43810;50.860;19.226;2023-05-13T00:49:32;6.97;;;5.40;;
58017;SDS011;43810;50.860;19.226;2023-05-13T00:51:58;8.70;;;6.10;;
58017;SDS011;43810;50.860;19.226;2023-05-13T00:54:25;9.63;;;6.15;;
58017;SDS011;43810;50.860;19.226;2023-05-13T00:56:52;8.23;;;5.88;;
58017;SDS011;43810;50.860;19.226;2023-05-13T00:59:25;12.90;;;5.85;;
58017;SDS011;43810;50.860;19.226;2023-05-13T01:12:44;9.68;;;5.90;;
58017;SDS011;43810;50.860;19.226;2023-05-13T01:15:14;11.00;;;6.70;;
58017;SDS011;43810;50.860;19.226;2023-05-13T01:20:22;9.30;;;6.03;;
58017;SDS011;43810;50.860;19.226;2023-05-13T01:22:49;10.88;;;5.95;;
58017;SDS011;43810;50.860;19.226;2023-05-13T01:25:14;11.68;;;6.45;;
58017;SDS011;43810;50.860;19.226;2023-05-13T01:27:40;9.73;;;6.20;;
58017;SDS011;43810;50.860;19.226;2023-05-13T01:30:07;11.05;;;6.20;;
58017;SDS011;43810;50.860;19.226;2023-05-13T01:32:34;10.35;;;6.32;;
58017;SDS011;43810;50.860;19.226;2023-05-13T01:35:00;10.60;;;5.90;;
58017;SDS011;43810;50.860;19.226;2023-05-13T01:37:27;10.35;;;6.13;;
58017;SDS011;43810;50.860;19.226;2023-05-13T01:39:53;13.88;;;5.63;;
58017;SDS011;43810;50.860;19.226;2023-05-13T01:42:21;9.80;;;6.07;;
58017;SDS011;43810;50.860;19.226;2023-05-13T01:44:47;8.43;;;6.28;;
58017;SDS011;43810;50.860;19.226;2023-05-13T01:47:15;10.13;;;7.18;;
58017;SDS011;43810;50.860;19.226;2023-05-13T01:49:41;11.15;;;6.18;;
58017;SDS011;43810;50.860;19.226;2023-05-13T01:52:07;11.35;;;6.57;;
58017;SDS011;43810;50.860;19.226;2023-05-13T01:54:33;9.48;;;5.80;;
58017;SDS011;43810;50.860;19.226;2023-05-13T01:57:00;8.40;;;6.00;;
58017;SDS011;43810;50.860;19.226;2023-05-13T01:59:25;11.75;;;6.50;;
58017;SDS011;43810;50.860;19.226;2023-05-13T02:01:51;12.07;;;7.00;;
58017;SDS011;43810;50.860;19.226;2023-05-13T02:04:17;9.73;;;6.43;;
58017;SDS011;43810;50.860;19.226;2023-05-13T02:06:43;10.63;;;6.38;;
58017;SDS011;43810;50.860;19.226;2023-05-13T02:09:09;14.60;;;6.53;;
58017;SDS011;43810;50.860;19.226;2023-05-13T02:11:34;14.15;;;6.80;;
58017;SDS011;43810;50.860;19.226;2023-05-13T02:14:00;10.77;;;5.50;;
58017;SDS011;43810;50.860;19.226;2023-05-13T02:16:26;9.18;;;6.72;;
58017;SDS011;43810;50.860;19.226;2023-05-13T02:18:52;9.75;;;6.47;;
58017;SDS011;43810;50.860;19.226;2023-05-13T02:21:18;9.18;;;6.20;;
58017;SDS011;43810;50.860;19.226;2023-05-13T02:23:44;7.78;;;6.38;;
58017;SDS011;43810;50.860;19.226;2023-05-13T02:26:10;10.35;;;5.50;;
58017;SDS011;43810;50.860;19.226;2023-05-13T02:28:36;7.95;;;6.03;;
58017;SDS011;43810;50.860;19.226;2023-05-13T02:31:01;9.57;;;5.78;;
58017;SDS011;43810;50.860;19.226;2023-05-13T02:33:27;10.25;;;6.60;;
58017;SDS011;43810;50.860;19.226;2023-05-13T02:35:53;10.32;;;6.28;;
58017;SDS011;43810;50.860;19.226;2023-05-13T02:38:19;8.95;;;6.30;;
58017;SDS011;43810;50.860;19.226;2023-05-13T02:40:45;8.15;;;6.28;;
58017;SDS011;43810;50.860;19.226;2023-05-13T02:43:10;13.25;;;6.35;;
58017;SDS011;43810;50.860;19.226;2023-05-13T02:45:37;9.75;;;6.13;;
58017;SDS011;43810;50.860;19.226;2023-05-13T02:48:04;12.50;;;6.82;;
58017;SDS011;43810;50.860;19.226;2023-05-13T02:50:30;11.15;;;6.43;;
58017;SDS011;43810;50.860;19.226;2023-05-13T02:52:55;8.73;;;6.78;;
58017;SDS011;43810;50.860;19.226;2023-05-13T02:55:21;10.65;;;6.15;;
58017;SDS011;43810;50.860;19.226;2023-05-13T02:57:47;10.15;;;6.63;;
58017;SDS011;43810;50.860;19.226;2023-05-13T03:00:13;8.85;;;5.85;;
58017;SDS011;43810;50.860;19.226;2023-05-13T03:02:39;9.95;;;6.25;;
58017;SDS011;43810;50.860;19.226;2023-05-13T03:05:06;10.95;;;6.22;;
58017;SDS011;43810;50.860;19.226;2023-05-13T03:07:32;10.02;;;6.00;;
58017;SDS011;43810;50.860;19.226;2023-05-13T03:09:58;13.07;;;6.47;;
58017;SDS011;43810;50.860;19.226;2023-05-13T03:12:24;7.75;;;6.00;;
58017;SDS011;43810;50.860;19.226;2023-05-13T03:14:50;10.82;;;5.63;;
58017;SDS011;43810;50.860;19.226;2023-05-13T03:17:16;8.40;;;5.47;;
58017;SDS011;43810;50.860;19.226;2023-05-13T03:19:43;12.20;;;5.97;;
58017;SDS011;43810;50.860;19.226;2023-05-13T03:22:09;7.32;;;5.28;;
58017;SDS011;43810;50.860;19.226;2023-05-13T03:24:35;10.85;;;5.85;;
58017;SDS011;43810;50.860;19.226;2023-05-13T03:27:00;8.25;;;5.93;;
58017;SDS011;43810;50.860;19.226;2023-05-13T03:29:26;10.45;;;6.43;;
58017;SDS011;43810;50.860;19.226;2023-05-13T03:31:52;14.52;;;6.72;;
58017;SDS011;43810;50.860;19.226;2023-05-13T03:34:18;9.88;;;6.18;;
58017;SDS011;43810;50.860;19.226;2023-05-13T03:36:44;8.02;;;6.22;;
58017;SDS011;43810;50.860;19.226;2023-05-13T03:39:10;10.85;;;6.53;;
58017;SDS011;43810;50.860;19.226;2023-05-13T03:41:36;14.05;;;6.45;;
58017;SDS011;43810;50.860;19.226;2023-05-13T03:44:02;9.63;;;6.03;;
58017;SDS011;43810;50.860;19.226;2023-05-13T03:46:28;12.23;;;5.95;;
58017;SDS011;43810;50.860;19.226;2023-05-13T03:48:54;7.97;;;5.93;;
58017;SDS011;43810;50.860;19.226;2023-05-13T03:51:20;11.77;;;5.85;;
58017;SDS011;43810;50.860;19.226;2023-05-13T03:53:47;14.00;;;6.22;;
58017;SDS011;43810;50.860;19.226;2023-05-13T03:56:12;10.65;;;6.13;;
58017;SDS011;43810;50.860;19.226;2023-05-13T03:58:39;8.57;;;5.78;;
58017;SDS011;43810;50.860;19.226;2023-05-13T04:01:05;10.25;;;6.60;;
58017;SDS011;43810;50.860;19.226;2023-05-13T04:03:32;8.20;;;5.78;;
58017;SDS011;43810;50.860;19.226;2023-05-13T04:05:58;10.63;;;5.80;;
58017;SDS011;43810;50.860;19.226;2023-05-13T04:08:25;11.23;;;5.75;;
58017;SDS011;43810;50.860;19.226;2023-05-13T04:10:51;9.30;;;6.05;;
58017;SDS011;43810;50.860;19.226;2023-05-13T04:13:18;8.32;;;5.63;;
58017;SDS011;43810;50.860;19.226;2023-05-13T04:15:43;9.13;;;5.68;;
58017;SDS011;43810;50.860;19.226;2023-05-13T04:18:09;8.05;;;5.47;;
58017;SDS011;43810;50.860;19.226;2023-05-13T04:20:38;8.60;;;5.50;;
58017;SDS011;43810;50.860;19.226;2023-05-13T04:23:04;9.18;;;5.40;;
58017;SDS011;43810;50.860;19.226;2023-05-13T04:25:30;10.57;;;5.70;;
58017;SDS011;43810;50.860;19.226;2023-05-13T04:27:56;10.15;;;5.43;;
58017;SDS011;43810;50.860;19.226;2023-05-13T04:30:22;8.57;;;5.43;;
58017;SDS011;43810;50.860;19.226;2023-05-13T04:32:48;8.73;;;5.03;;
58017;SDS011;43810;50.860;19.226;2023-05-13T04:35:14;7.57;;;5.43;;
58017;SDS011;43810;50.860;19.226;2023-05-13T04:37:40;8.73;;;6.13;;
58017;SDS011;43810;50.860;19.226;2023-05-13T04:40:06;12.88;;;5.30;;
58017;SDS011;43810;50.860;19.226;2023-05-13T04:42:33;9.23;;;5.47;;
58017;SDS011;43810;50.860;19.226;2023-05-13T04:44:58;10.27;;;5.22;;
58017;SDS011;43810;50.860;19.226;2023-05-13T04:47:24;6.72;;;4.93;;
58017;SDS011;43810;50.860;19.226;2023-05-13T04:49:50;8.77;;;5.40;;
58017;SDS011;43810;50.860;19.226;2023-05-13T04:52:16;7.85;;;4.80;;
58017;SDS011;43810;50.860;19.226;2023-05-13T04:54:42;8.88;;;4.90;;
58017;SDS011;43810;50.860;19.226;2023-05-13T04:57:08;7.88;;;4.18;;
58017;SDS011;43810;50.860;19.226;2023-05-13T04:59:33;7.80;;;4.85;;
58017;SDS011;43810;50.860;19.226;2023-05-13T05:01:59;9.48;;;5.07;;
58017;SDS011;43810;50.860;19.226;2023-05-13T05:04:25;7.28;;;4.95;;
58017;SDS011;43810;50.860;19.226;2023-05-13T05:06:52;9.25;;;5.03;;
58017;SDS011;43810;50.860;19.226;2023-05-13T05:09:18;7.60;;;4.47;;
58017;SDS011;43810;50.860;19.226;2023-05-13T05:11:44;7.65;;;5.35;;
58017;SDS011;43810;50.860;19.226;2023-05-13T05:14:10;7.22;;;4.38;;
58017;SDS011;43810;50.860;19.226;2023-05-13T05:16:36;8.07;;;5.10;;
58017;SDS011;43810;50.860;19.226;2023-05-13T05:19:01;7.50;;;4.70;;
58017;SDS011;43810;50.860;19.226;2023-05-13T05:21:27;6.53;;;4.32;;
58017;SDS011;43810;50.860;19.226;2023-05-13T05:23:53;5.75;;;4.43;;
58017;SDS011;43810;50.860;19.226;2023-05-13T05:26:19;8.55;;;5.18;;
58017;SDS011;43810;50.860;19.226;2023-05-13T05:28:46;6.43;;;4.40;;
58017;SDS011;43810;50.860;19.226;2023-05-13T05:31:12;7.05;;;4.95;;
58017;SDS011;43810;50.860;19.226;2023-05-13T05:33:38;8.35;;;4.70;;
58017;SDS011;43810;50.860;19.226;2023-05-13T05:36:05;8.70;;;4.75;;
58017;SDS011;43810;50.860;19.226;2023-05-13T05:38:31;6.95;;;4.88;;
58017;SDS011;43810;50.860;19.226;2023-05-13T05:40:57;11.35;;;4.25;;
58017;SDS011;43810;50.860;19.226;2023-05-13T05:43:22;7.18;;;4.70;;
58017;SDS011;43810;50.860;19.226;2023-05-13T05:45:48;7.20;;;4.45;;
58017;SDS011;43810;50.860;19.226;2023-05-13T05:48:14;6.45;;;4.40;;
58017;SDS011;43810;50.860;19.226;2023-05-13T05:50:40;9.57;;;4.40;;
58017;SDS011;43810;50.860;19.226;2023-05-13T05:53:05;7.20;;;4.75;;
58017;SDS011;43810;50.860;19.226;2023-05-13T05:55:31;8.00;;;4.45;;
58017;SDS011;43810;50.860;19.226;2023-05-13T05:57:57;7.60;;;4.38;;
58017;SDS011;43810;50.860;19.226;2023-05-13T06:00:28;7.85;;;4.57;;
58017;SDS011;43810;50.860;19.226;2023-05-13T06:02:54;8.90;;;4.80;;
58017;SDS011;43810;50.860;19.226;2023-05-13T06:05:21;8.23;;;4.45;;
58017;SDS011;43810;50.860;19.226;2023-05-13T06:07:47;6.78;;;4.53;;
58017;SDS011;43810;50.860;19.226;2023-05-13T06:10:14;6.50;;;4.18;;
58017;SDS011;43810;50.860;19.226;2023-05-13T06:12:40;4.70;;;3.70;;
58017;SDS011;43810;50.860;19.226;2023-05-13T06:15:09;6.30;;;4.20;;
58017;SDS011;43810;50.860;19.226;2023-05-13T06:17:35;6.85;;;4.75;;
58017;SDS011;43810;50.860;19.226;2023-05-13T06:20:02;9.38;;;3.95;;
58017;SDS011;43810;50.860;19.226;2023-05-13T06:22:28;6.95;;;4.18;;
58017;SDS011;43810;50.860;19.226;2023-05-13T06:24:55;10.32;;;4.50;;
58017;SDS011;43810;50.860;19.226;2023-05-13T06:27:20;5.88;;;3.90;;
58017;SDS011;43810;50.860;19.226;2023-05-13T06:29:46;5.82;;;4.20;;
58017;SDS011;43810;50.860;19.226;2023-05-13T06:32:12;8.32;;;3.58;;
58017;SDS011;43810;50.860;19.226;2023-05-13T06:34:39;7.30;;;4.05;;
58017;SDS011;43810;50.860;19.226;2023-05-13T06:37:12;6.35;;;3.70;;
58017;SDS011;43810;50.860;19.226;2023-05-13T06:39:39;5.03;;;3.50;;
58017;SDS011;43810;50.860;19.226;2023-05-13T06:42:04;4.72;;;3.47;;
58017;SDS011;43810;50.860;19.226;2023-05-13T06:44:31;5.72;;;3.90;;
58017;SDS011;43810;50.860;19.226;2023-05-13T06:46:56;5.15;;;3.78;;
58017;SDS011;43810;50.860;19.226;2023-05-13T06:49:22;4.35;;;3.72;;
58017;SDS011;43810;50.860;19.226;2023-05-13T06:51:51;7.38;;;3.50;;
58017;SDS011;43810;50.860;19.226;2023-05-13T06:54:16;10.15;;;4.15;;
58017;SDS011;43810;50.860;19.226;2023-05-13T06:56:42;6.20;;;4.05;;
58017;SDS011;43810;50.860;19.226;2023-05-13T06:59:08;5.50;;;3.47;;
58017;SDS011;43810;50.860;19.226;2023-05-13T07:01:34;3.47;;;3.15;;
58017;SDS011;43810;50.860;19.226;2023-05-13T07:04:00;4.85;;;3.45;;
58017;SDS011;43810;50.860;19.226;2023-05-13T07:06:26;5.65;;;3.10;;
58017;SDS011;43810;50.860;19.226;2023-05-13T07:08:52;11.52;;;3.47;;
58017;SDS011;43810;50.860;19.226;2023-05-13T07:11:18;11.95;;;3.30;;
58017;SDS011;43810;50.860;19.226;2023-05-13T07:13:44;6.30;;;3.13;;
58017;SDS011;43810;50.860;19.226;2023-05-13T07:16:09;7.15;;;3.10;;
58017;SDS011;43810;50.860;19.226;2023-05-13T07:18:36;5.57;;;3.72;;
58017;SDS011;43810;50.860;19.226;2023-05-13T07:21:01;3.85;;;3.03;;
58017;SDS011;43810;50.860;19.226;2023-05-13T07:23:27;4.80;;;3.05;;
58017;SDS011;43810;50.860;19.226;2023-05-13T07:25:53;4.93;;;3.35;;
58017;SDS011;43810;50.860;19.226;2023-05-13T07:28:19;6.95;;;3.05;;
58017;SDS011;43810;50.860;19.226;2023-05-13T07:30:45;4.57;;;2.97;;
58017;SDS011;43810;50.860;19.226;2023-05-13T07:33:11;10.82;;;3.55;;
58017;SDS011;43810;50.860;19.226;2023-05-13T07:35:37;8.25;;;3.60;;
58017;SDS011;43810;50.860;19.226;2023-05-13T07:38:03;7.60;;;2.95;;
58017;SDS011;43810;50.860;19.226;2023-05-13T07:40:32;5.57;;;2.50;;
58017;SDS011;43810;50.860;19.226;2023-05-13T07:42:58;4.25;;;2.88;;
58017;SDS011;43810;50.860;19.226;2023-05-13T07:45:23;3.10;;;2.42;;
58017;SDS011;43810;50.860;19.226;2023-05-13T07:47:50;2.95;;;2.33;;
58017;SDS011;43810;50.860;19.226;2023-05-13T07:50:15;6.63;;;3.05;;
58017;SDS011;43810;50.860;19.226;2023-05-13T07:52:41;4.50;;;2.80;;
58017;SDS011;43810;50.860;19.226;2023-05-13T07:55:08;4.03;;;2.95;;
58017;SDS011;43810;50.860;19.226;2023-05-13T07:57:35;4.30;;;2.20;;
58017;SDS011;43810;50.860;19.226;2023-05-13T08:00:01;4.65;;;2.63;;
58017;SDS011;43810;50.860;19.226;2023-05-13T08:02:27;3.95;;;2.20;;
58017;SDS011;43810;50.860;19.226;2023-05-13T08:04:58;4.38;;;2.20;;
58017;SDS011;43810;50.860;19.226;2023-05-13T08:07:25;4.65;;;2.20;;
58017;SDS011;43810;50.860;19.226;2023-05-13T08:09:51;3.78;;;2.20;;
58017;SDS011;43810;50.860;19.226;2023-05-13T08:12:17;5.00;;;2.35;;
58017;SDS011;43810;50.860;19.226;2023-05-13T08:14:43;4.80;;;2.55;;
58017;SDS011;43810;50.860;19.226;2023-05-13T08:17:09;3.72;;;1.90;;
58017;SDS011;43810;50.860;19.226;2023-05-13T08:19:34;3.63;;;2.13;;
58017;SDS011;43810;50.860;19.226;2023-05-13T08:22:01;6.93;;;2.00;;
58017;SDS011;43810;50.860;19.226;2023-05-13T08:24:26;3.95;;;1.67;;
58017;SDS011;43810;50.860;19.226;2023-05-13T08:26:52;2.15;;;1.83;;
58017;SDS011;43810;50.860;19.226;2023-05-13T08:29:18;3.35;;;2.28;;
58017;SDS011;43810;50.860;19.226;2023-05-13T08:31:44;8.45;;;2.15;;
58017;SDS011;43810;50.860;19.226;2023-05-13T08:34:09;7.38;;;1.95;;
58017;SDS011;43810;50.860;19.226;2023-05-13T08:36:35;2.80;;;1.92;;
58017;SDS011;43810;50.860;19.226;2023-05-13T08:39:01;4.20;;;1.90;;
58017;SDS011;43810;50.860;19.226;2023-05-13T08:41:28;2.35;;;1.50;;
58017;SDS011;43810;50.860;19.226;2023-05-13T08:43:56;6.20;;;2.08;;
58017;SDS011;43810;50.860;19.226;2023-05-13T08:46:23;3.30;;;1.73;;
58017;SDS011;43810;50.860;19.226;2023-05-13T08:48:51;6.85;;;1.98;;
58017;SDS011;43810;50.860;19.226;2023-05-13T08:51:19;2.30;;;2.03;;
58017;SDS011;43810;50.860;19.226;2023-05-13T08:53:44;2.90;;;1.80;;
58017;SDS011;43810;50.860;19.226;2023-05-13T08:56:12;2.60;;;1.98;;
58017;SDS011;43810;50.860;19.226;2023-05-13T08:58:38;3.22;;;2.03;;
58017;SDS011;43810;50.860;19.226;2023-05-13T09:01:04;4.18;;;1.90;;
58017;SDS011;43810;50.860;19.226;2023-05-13T09:03:29;4.32;;;1.90;;
58017;SDS011;43810;50.860;19.226;2023-05-13T09:05:58;4.18;;;2.00;;
58017;SDS011;43810;50.860;19.226;2023-05-13T09:08:25;2.38;;;2.08;;
58017;SDS011;43810;50.860;19.226;2023-05-13T09:10:51;7.32;;;4.05;;
58017;SDS011;43810;50.860;19.226;2023-05-13T09:13:17;3.08;;;1.73;;
58017;SDS011;43810;50.860;19.226;2023-05-13T09:15:44;6.57;;;2.47;;
58017;SDS011;43810;50.860;19.226;2023-05-13T09:18:10;3.55;;;2.25;;
58017;SDS011;43810;50.860;19.226;2023-05-13T09:20:37;4.03;;;2.30;;
58017;SDS011;43810;50.860;19.226;2023-05-13T09:23:04;6.10;;;1.70;;
58017;SDS011;43810;50.860;19.226;2023-05-13T09:25:32;4.13;;;1.63;;
58017;SDS011;43810;50.860;19.226;2023-05-13T09:28:01;2.78;;;1.98;;
58017;SDS011;43810;50.860;19.226;2023-05-13T09:30:29;2.55;;;1.75;;
58017;SDS011;43810;50.860;19.226;2023-05-13T09:33:14;4.03;;;1.90;;
58017;SDS011;43810;50.860;19.226;2023-05-13T09:35:42;5.95;;;2.10;;
58017;SDS011;43810;50.860;19.226;2023-05-13T09:38:13;3.20;;;1.73;;
58017;SDS011;43810;50.860;19.226;2023-05-13T09:40:39;4.10;;;2.25;;
58017;SDS011;43810;50.860;19.226;2023-05-13T09:43:05;9.90;;;1.98;;
58017;SDS011;43810;50.860;19.226;2023-05-13T09:45:33;3.28;;;2.00;;
58017;SDS011;43810;50.860;19.226;2023-05-13T09:47:58;2.20;;;1.73;;
58017;SDS011;43810;50.860;19.226;2023-05-13T09:50:25;7.32;;;1.95;;
58017;SDS011;43810;50.860;19.226;2023-05-13T09:52:51;3.97;;;1.80;;
58017;SDS011;43810;50.860;19.226;2023-05-13T09:55:17;16.67;;;1.98;;
58017;SDS011;43810;50.860;19.226;2023-05-13T09:57:42;6.75;;;1.88;;
58017;SDS011;43810;50.860;19.226;2023-05-13T10:00:10;2.35;;;1.80;;
58017;SDS011;43810;50.860;19.226;2023-05-13T10:02:37;1.90;;;1.67;;
58017;SDS011;43810;50.860;19.226;2023-05-13T10:05:03;3.75;;;1.65;;
58017;SDS011;43810;50.860;19.226;2023-05-13T10:07:32;6.28;;;2.00;;
58017;SDS011;43810;50.860;19.226;2023-05-13T10:10:02;2.75;;;1.70;;
58017;SDS011;43810;50.860;19.226;2023-05-13T10:12:31;4.15;;;1.70;;
58017;SDS011;43810;50.860;19.226;2023-05-13T10:14:58;2.75;;;2.05;;
58017;SDS011;43810;50.860;19.226;2023-05-13T10:17:26;2.05;;;1.60;;
58017;SDS011;43810;50.860;19.226;2023-05-13T10:19:52;2.33;;;1.80;;
58017;SDS011;43810;50.860;19.226;2023-05-13T10:22:37;2.63;;;1.73;;
58017;SDS011;43810;50.860;19.226;2023-05-13T10:25:04;7.20;;;2.20;;
58017;SDS011;43810;50.860;19.226;2023-05-13T10:27:31;2.83;;;1.98;;
58017;SDS011;43810;50.860;19.226;2023-05-13T10:29:59;3.47;;;1.90;;
58017;SDS011;43810;50.860;19.226;2023-05-13T10:32:27;2.95;;;1.75;;
58017;SDS011;43810;50.860;19.226;2023-05-13T10:35:04;3.30;;;2.08;;
58017;SDS011;43810;50.860;19.226;2023-05-13T10:40:31;2.35;;;1.80;;
58017;SDS011;43810;50.860;19.226;2023-05-13T10:43:10;2.65;;;2.00;;
58017;SDS011;43810;50.860;19.226;2023-05-13T10:45:51;4.15;;;1.95;;
58017;SDS011;43810;50.860;19.226;2023-05-13T10:48:48;3.22;;;2.10;;
58017;SDS011;43810;50.860;19.226;2023-05-13T10:51:16;4.70;;;2.33;;
58017;SDS011;43810;50.860;19.226;2023-05-13T10:53:45;14.40;;;2.55;;
58017;SDS011;43810;50.860;19.226;2023-05-13T10:56:13;4.45;;;2.25;;
58017;SDS011;43810;50.860;19.226;2023-05-13T10:58:39;3.55;;;2.20;;
58017;SDS011;43810;50.860;19.226;2023-05-13T11:01:25;3.13;;;2.08;;
58017;SDS011;43810;50.860;19.226;2023-05-13T11:03:54;3.15;;;2.00;;
58017;SDS011;43810;50.860;19.226;2023-05-13T11:06:28;6.50;;;2.00;;
58017;SDS011;43810;50.860;19.226;2023-05-13T11:09:02;4.55;;;2.42;;
58017;SDS011;43810;50.860;19.226;2023-05-13T11:11:50;4.88;;;1.90;;
58017;SDS011;43810;50.860;19.226;2023-05-13T11:14:18;3.75;;;2.00;;
58017;SDS011;43810;50.860;19.226;2023-05-13T11:19:29;4.25;;;2.20;;
58017;SDS011;43810;50.860;19.226;2023-05-13T11:21:56;4.95;;;2.20;;
58017;SDS011;43810;50.860;19.226;2023-05-13T11:24:23;6.47;;;2.30;;
58017;SDS011;43810;50.860;19.226;2023-05-13T11:26:53;4.82;;;2.00;;
58017;SDS011;43810;50.860;19.226;2023-05-13T11:29:33;2.03;;;1.70;;
58017;SDS011;43810;50.860;19.226;2023-05-13T11:32:01;5.78;;;2.20;;
58017;SDS011;43810;50.860;19.226;2023-05-13T11:34:29;3.42;;;1.70;;
58017;SDS011;43810;50.860;19.226;2023-05-13T11:36:58;3.28;;;1.92;;
58017;SDS011;43810;50.860;19.226;2023-05-13T11:39:34;7.97;;;2.10;;
58017;SDS011;43810;50.860;19.226;2023-05-13T11:42:00;3.28;;;2.20;;
58017;SDS011;43810;50.860;19.226;2023-05-13T11:44:33;6.25;;;2.33;;
58017;SDS011;43810;50.860;19.226;2023-05-13T11:47:03;2.60;;;1.90;;
58017;SDS011;43810;50.860;19.226;2023-05-13T11:51:59;4.00;;;1.88;;
58017;SDS011;43810;50.860;19.226;2023-05-13T11:54:29;4.30;;;2.33;;
58017;SDS011;43810;50.860;19.226;2023-05-13T11:56:55;2.47;;;2.10;;
58017;SDS011;43810;50.860;19.226;2023-05-13T11:59:20;6.40;;;2.70;;
58017;SDS011;43810;50.860;19.226;2023-05-13T12:02:00;2.92;;;2.17;;
58017;SDS011;43810;50.860;19.226;2023-05-13T12:04:27;7.80;;;2.20;;
58017;SDS011;43810;50.860;19.226;2023-05-13T12:06:56;3.50;;;2.40;;
58017;SDS011;43810;50.860;19.226;2023-05-13T12:09:22;4.35;;;2.55;;
58017;SDS011;43810;50.860;19.226;2023-05-13T12:11:51;4.65;;;2.38;;
58017;SDS011;43810;50.860;19.226;2023-05-13T12:14:18;2.88;;;2.17;;
58017;SDS011;43810;50.860;19.226;2023-05-13T12:16:46;6.82;;;2.47;;
58017;SDS011;43810;50.860;19.226;2023-05-13T12:19:12;4.63;;;2.20;;
58017;SDS011;43810;50.860;19.226;2023-05-13T12:21:37;4.72;;;2.47;;
58017;SDS011;43810;50.860;19.226;2023-05-13T12:24:16;5.28;;;2.20;;
58017;SDS011;43810;50.860;19.226;2023-05-13T12:26:43;4.70;;;2.47;;
58017;SDS011;43810;50.860;19.226;2023-05-13T12:29:09;5.28;;;2.20;;
58017;SDS011;43810;50.860;19.226;2023-05-13T12:31:35;6.28;;;2.78;;
58017;SDS011;43810;50.860;19.226;2023-05-13T12:34:00;5.38;;;2.67;;
58017;SDS011;43810;50.860;19.226;2023-05-13T12:36:27;7.32;;;2.75;;
58017;SDS011;43810;50.860;19.226;2023-05-13T12:39:03;10.45;;;2.90;;
58017;SDS011;43810;50.860;19.226;2023-05-13T12:41:37;5.45;;;2.55;;
58017;SDS011;43810;50.860;19.226;2023-05-13T12:44:08;5.65;;;2.70;;
58017;SDS011;43810;50.860;19.226;2023-05-13T12:46:51;4.75;;;2.25;;
58017;SDS011;43810;50.860;19.226;2023-05-13T12:49:21;5.88;;;2.47;;
58017;SDS011;43810;50.860;19.226;2023-05-13T12:51:47;4.82;;;2.70;;
58017;SDS011;43810;50.860;19.226;2023-05-13T12:54:13;4.18;;;2.50;;
58017;SDS011;43810;50.860;19.226;2023-05-13T12:56:39;7.40;;;2.97;;
58017;SDS011;43810;50.860;19.226;2023-05-13T12:59:05;4.43;;;2.50;;
58017;SDS011;43810;50.860;19.226;2023-05-13T13:01:31;5.18;;;2.42;;
58017;SDS011;43810;50.860;19.226;2023-05-13T13:03:56;22.00;;;9.57;;
58017;SDS011;43810;50.860;19.226;2023-05-13T13:06:22;9.70;;;4.30;;
58017;SDS011;43810;50.860;19.226;2023-05-13T13:08:48;5.72;;;3.58;;
58017;SDS011;43810;50.860;19.226;2023-05-13T13:11:14;6.22;;;4.15;;
58017;SDS011;43810;50.860;19.226;2023-05-13T13:13:43;5.85;;;2.65;;
58017;SDS011;43810;50.860;19.226;2023-05-13T13:16:10;2.88;;;2.47;;
58017;SDS011;43810;50.860;19.226;2023-05-13T13:18:35;2.63;;;2.38;;
58017;SDS011;43810;50.860;19.226;2023-05-13T13:21:01;3.92;;;2.35;;
58017;SDS011;43810;50.860;19.226;2023-05-13T13:23:29;3.47;;;2.28;;
58017;SDS011;43810;50.860;19.226;2023-05-13T13:25:55;4.45;;;3.17;;
58017;SDS011;43810;50.860;19.226;2023-05-13T13:28:24;4.18;;;2.25;;
58017;SDS011;43810;50.860;19.226;2023-05-13T13:30:50;3.88;;;2.45;;
58017;SDS011;43810;50.860;19.226;2023-05-13T13:33:16;2.53;;;2.33;;
58017;SDS011;43810;50.860;19.226;2023-05-13T13:35:42;3.90;;;2.65;;
58017;SDS011;43810;50.860;19.226;2023-05-13T13:38:09;4.90;;;1.98;;
58017;SDS011;43810;50.860;19.226;2023-05-13T13:40:35;3.20;;;2.47;;
58017;SDS011;43810;50.860;19.226;2023-05-13T13:43:01;4.43;;;2.50;;
58017;SDS011;43810;50.860;19.226;2023-05-13T13:45:28;3.80;;;2.40;;
58017;SDS011;43810;50.860;19.226;2023-05-13T13:47:54;5.47;;;2.08;;
58017;SDS011;43810;50.860;19.226;2023-05-13T13:50:20;5.80;;;1.88;;
58017;SDS011;43810;50.860;19.226;2023-05-13T13:52:46;2.50;;;2.20;;
58017;SDS011;43810;50.860;19.226;2023-05-13T13:55:11;2.70;;;1.88;;
58017;SDS011;43810;50.860;19.226;2023-05-13T13:57:39;3.70;;;2.00;;
58017;SDS011;43810;50.860;19.226;2023-05-13T14:00:05;4.30;;;2.35;;
58017;SDS011;43810;50.860;19.226;2023-05-13T14:02:31;5.75;;;2.42;;
58017;SDS011;43810;50.860;19.226;2023-05-13T14:04:57;6.68;;;1.95;;
58017;SDS011;43810;50.860;19.226;2023-05-13T14:07:23;4.68;;;2.00;;
58017;SDS011;43810;50.860;19.226;2023-05-13T14:09:49;6.55;;;1.83;;
58017;SDS011;43810;50.860;19.226;2023-05-13T14:12:16;2.28;;;2.00;;
58017;SDS011;43810;50.860;19.226;2023-05-13T14:14:42;3.92;;;1.75;;
58017;SDS011;43810;50.860;19.226;2023-05-13T14:17:08;3.33;;;1.80;;
58017;SDS011;43810;50.860;19.226;2023-05-13T14:19:34;2.78;;;1.90;;
58017;SDS011;43810;50.860;19.226;2023-05-13T14:21:59;5.72;;;2.08;;
58017;SDS011;43810;50.860;19.226;2023-05-13T14:24:25;9.05;;;2.58;;
58017;SDS011;43810;50.860;19.226;2023-05-13T14:26:52;3.92;;;1.88;;
58017;SDS011;43810;50.860;19.226;2023-05-13T14:29:18;3.42;;;1.75;;
58017;SDS011;43810;50.860;19.226;2023-05-13T14:31:43;2.83;;;2.13;;
58017;SDS011;43810;50.860;19.226;2023-05-13T14:34:09;3.33;;;1.70;;
58017;SDS011;43810;50.860;19.226;2023-05-13T14:36:35;3.13;;;1.95;;
58017;SDS011;43810;50.860;19.226;2023-05-13T14:39:01;3.35;;;1.90;;
58017;SDS011;43810;50.860;19.226;2023-05-13T14:41:26;5.82;;;1.90;;
58017;SDS011;43810;50.860;19.226;2023-05-13T14:43:54;3.35;;;2.17;;
58017;SDS011;43810;50.860;19.226;2023-05-13T14:46:20;5.03;;;1.52;;
58017;SDS011;43810;50.860;19.226;2023-05-13T14:48:46;2.97;;;1.75;;
58017;SDS011;43810;50.860;19.226;2023-05-13T14:51:12;5.25;;;1.77;;